Time;durP1;ratioP1;P1;durP2;ratioP2;P2;SDS_P1;SDS_P2;PMS_P1;PMS_P2;Temp;Humidity;BMP_temperature;BMP_pressure;BME280_temperature;BME280_humidity;BME280_pressure;Samples;Min_cycle;Max_cycle;Signal;HPM_P1;HPM_P2
2023/05/20 00:00:05;;;;;;;11.30;4.65;;;10.70;99.90;;;;;;5095549;28;20078;-69
2023/05/20 00:02:31;;;;;;;13.63;4.75;;;10.60;99.90;;;;;;5097886;28;20051;-71
2023/05/20 00:04:56;;;;;;;11.95;4.20;;;10.50;99.90;;;;;;5098517;28;20610;-68
2023/05/20 00:07:22;;;;;;;14.52;4.72;;;10.50;99.90;;;;;;5101989;28;20032;-68
2023/05/20 00:09:47;;;;;;;11.70;4.55;;;10.50;99.90;;;;;;5104196;28;20151;-68
2023/05/20 00:12:13;;;;;;;14.15;5.03;;;10.50;99.90;;;;;;5083800;28;20044;-70
2023/05/20 00:14:39;;;;;;;18.13;5.18;;;10.50;99.90;;;;;;5083340;28;20058;-68
2023/05/20 00:17:04;;;;;;;14.32;4.40;;;10.40;99.90;;;;;;5099608;28;20163;-68
2023/05/20 00:19:30;;;;;;;12.85;4.60;;;10.70;99.90;;;;;;5102068;28;20040;-68
2023/05/20 00:21:57;;;;;;;13.65;4.72;;;10.40;99.90;;;;;;5103309;28;20040;-68
2023/05/20 00:24:24;;;;;;;17.50;4.93;;;10.40;99.90;;;;;;5104711;28;20039;-68
2023/05/20 00:26:49;;;;;;;12.43;4.45;;;10.50;99.90;;;;;;5104677;28;20478;-69
2023/05/20 00:29:15;;;;;;;13.00;4.53;;;10.60;99.90;;;;;;5101384;28;20055;-69
2023/05/20 00:31:41;;;;;;;12.70;5.05;;;10.40;99.90;;;;;;5096969;28;20043;-67
2023/05/20 00:34:07;;;;;;;14.80;4.50;;;10.40;99.90;;;;;;5103575;28;20499;-68
2023/05/20 00:36:33;;;;;;;13.30;4.15;;;10.40;99.90;;;;;;5101863;28;20036;-69
2023/05/20 00:38:59;;;;;;;17.65;4.90;;;10.40;99.90;;;;;;5101570;28;20039;-69
2023/05/20 00:41:25;;;;;;;15.90;4.88;;;10.40;99.90;;;;;;5104435;28;20509;-66
2023/05/20 00:43:54;;;;;;;14.20;4.68;;;10.30;99.90;;;;;;5104705;28;20195;-69
2023/05/20 00:46:20;;;;;;;14.35;4.65;;;10.30;99.90;;;;;;5102867;28;20165;-67
2023/05/20 00:48:46;;;;;;;10.95;4.55;;;10.30;99.90;;;;;;5101474;28;20840;-69
2023/05/20 00:51:13;;;;;;;10.13;4.07;;;10.50;99.90;;;;;;5101316;28;20185;-68
2023/05/20 00:53:40;;;;;;;15.95;4.82;;;10.40;99.90;;;;;;5077605;28;20051;-68
2023/05/20 00:56:07;;;;;;;13.60;4.78;;;10.30;99.90;;;;;;5104627;28;20394;-68
2023/05/20 00:58:35;;;;;;;14.20;4.88;;;10.30;99.90;;;;;;5102365;28;20075;-68
2023/05/20 01:01:01;;;;;;;12.75;4.72;;;10.30;99.90;;;;;;5087408;28;20131;-68
2023/05/20 01:03:28;;;;;;;15.02;4.95;;;10.40;99.90;;;;;;5082668;28;20140;-68
2023/05/20 01:05:53;;;;;;;14.15;4.93;;;10.30;99.90;;;;;;5104269;28;20472;-69
2023/05/20 01:08:23;;;;;;;14.77;5.18;;;10.20;99.90;;;;;;5096527;28;20126;-68
2023/05/20 01:10:57;;;;;;;15.52;4.75;;;10.10;99.90;;;;;;5103162;28;20044;-68
2023/05/20 01:13:28;;;;;;;12.25;4.78;;;10.20;99.90;;;;;;5104214;28;20070;-68
2023/05/20 01:15:55;;;;;;;11.90;3.92;;;10.50;99.90;;;;;;5085081;28;20445;-69
2023/05/20 01:18:24;;;;;;;13.38;4.78;;;10.20;99.90;;;;;;5100131;28;20776;-68
2023/05/20 01:20:54;;;;;;;14.88;4.95;;;10.10;99.90;;;;;;5101368;28;20044;-68
2023/05/20 01:23:20;;;;;;;13.63;5.30;;;10.10;99.90;;;;;;5103668;28;20044;-68
2023/05/20 01:25:46;;;;;;;12.35;4.63;;;10.10;99.90;;;;;;5103878;28;20494;-67
2023/05/20 01:28:16;;;;;;;17.63;4.85;;;10.10;99.90;;;;;;5100947;28;20043;-67
2023/05/20 01:30:48;;;;;;;13.70;4.70;;;10.10;99.90;;;;;;5095264;28;20107;-69
2023/05/20 01:33:16;;;;;;;11.35;4.43;;;10.10;99.90;;;;;;5103278;28;20123;-69
2023/05/20 01:35:42;;;;;;;18.67;5.28;;;10.00;99.90;;;;;;5081699;28;20505;-69
2023/05/20 01:38:08;;;;;;;13.18;4.68;;;10.00;99.90;;;;;;5101584;28;20064;-68
2023/05/20 01:40:34;;;;;;;11.80;4.07;;;10.10;99.90;;;;;;5103674;28;20044;-68
2023/05/20 01:43:02;;;;;;;13.30;4.47;;;10.00;99.90;;;;;;5103639;28;20043;-71
2023/05/20 01:45:27;;;;;;;10.65;4.20;;;10.00;99.90;;;;;;5081825;28;20047;-69
2023/05/20 01:47:53;;;;;;;11.93;4.18;;;10.00;99.90;;;;;;5100436;28;20123;-70
2023/05/20 01:50:19;;;;;;;12.07;4.65;;;10.00;99.90;;;;;;5100838;28;20059;-72
2023/05/20 01:52:44;;;;;;;15.38;5.05;;;10.00;99.90;;;;;;5103241;28;20039;-70
2023/05/20 01:55:10;;;;;;;13.45;4.53;;;10.00;99.90;;;;;;5103349;28;20119;-71
2023/05/20 01:57:36;;;;;;;11.23;4.20;;;10.10;99.90;;;;;;5100664;28;20078;-68
2023/05/20 02:00:02;;;;;;;12.02;4.80;;;10.00;99.90;;;;;;5099812;28;20044;-69
2023/05/20 02:02:28;;;;;;;12.98;4.63;;;10.00;99.90;;;;;;5086467;28;20140;-70
2023/05/20 02:04:54;;;;;;;15.85;4.55;;;10.00;99.90;;;;;;5092490;28;20498;-67
2023/05/20 02:07:19;;;;;;;12.02;4.43;;;10.00;99.90;;;;;;5081513;28;20044;-70
2023/05/20 02:09:46;;;;;;;10.07;4.22;;;10.00;99.90;;;;;;5095630;28;20384;-68
2023/05/20 02:12:15;;;;;;;11.77;4.57;;;10.10;99.90;;;;;;5099792;28;20040;-71
2023/05/20 02:14:46;;;;;;;9.93;4.50;;;10.00;99.90;;;;;;5100488;28;20541;-72
2023/05/20 02:17:15;;;;;;;14.48;6.00;;;10.10;99.90;;;;;;5088745;28;20031;-69
2023/05/20 02:19:41;;;;;;;13.75;5.15;;;9.90;99.90;;;;;;5095870;28;20051;-70
2023/05/20 02:22:06;;;;;;;14.13;4.57;;;10.10;99.90;;;;;;5086023;28;20043;-72
2023/05/20 02:24:32;;;;;;;12.15;5.13;;;10.00;99.90;;;;;;5095654;28;20060;-71
2023/05/20 02:26:58;;;;;;;9.63;4.72;;;9.90;99.90;;;;;;5092440;28;20039;-69
2023/05/20 02:29:24;;;;;;;11.25;4.18;;;9.90;99.90;;;;;;5101682;28;20042;-69
2023/05/20 02:31:50;;;;;;;16.05;5.10;;;9.90;99.90;;;;;;5094102;28;20075;-67
2023/05/20 02:34:20;;;;;;;10.20;5.32;;;10.20;99.90;;;;;;5098868;28;20125;-69
2023/05/20 02:36:45;;;;;;;10.18;4.53;;;9.90;99.90;;;;;;5098806;28;20040;-66
2023/05/20 02:39:11;;;;;;;14.82;5.05;;;9.90;99.90;;;;;;5097998;28;20061;-68
2023/05/20 02:41:37;;;;;;;13.63;4.93;;;9.90;99.90;;;;;;5093338;28;20036;-68
2023/05/20 02:44:02;;;;;;;17.00;4.47;;;9.90;99.90;;;;;;5099621;28;20044;-69
2023/05/20 02:46:28;;;;;;;9.70;4.75;;;9.80;99.90;;;;;;5094942;28;20050;-69
2023/05/20 02:48:54;;;;;;;12.77;4.38;;;9.90;99.90;;;;;;5090312;28;20122;-68
2023/05/20 02:51:19;;;;;;;9.05;4.32;;;9.80;99.90;;;;;;5100021;28;20078;-69
2023/05/20 02:53:46;;;;;;;12.02;5.13;;;9.80;99.90;;;;;;5095318;28;20398;-69
2023/05/20 02:56:12;;;;;;;13.88;4.63;;;9.80;99.90;;;;;;5099538;28;20501;-66
2023/05/20 02:58:38;;;;;;;9.73;4.57;;;9.80;99.90;;;;;;5083293;28;20056;-69
2023/05/20 03:01:04;;;;;;;12.02;5.07;;;9.80;99.90;;;;;;5095839;28;20094;-69
2023/05/20 03:03:30;;;;;;;10.25;4.32;;;9.80;99.90;;;;;;5095795;28;20039;-70
2023/05/20 03:05:55;;;;;;;14.27;4.57;;;9.70;99.90;;;;;;5098827;28;20036;-68
2023/05/20 03:08:22;;;;;;;11.90;5.20;;;9.70;99.90;;;;;;5098750;28;20442;-71
2023/05/20 03:10:48;;;;;;;10.50;4.82;;;9.70;99.90;;;;;;5100643;28;20039;-70
2023/05/20 03:13:14;;;;;;;10.18;4.22;;;9.70;99.90;;;;;;5095617;28;20050;-70
2023/05/20 03:15:44;;;;;;;5.57;4.07;;;9.70;99.90;;;;;;5071541;28;20072;-67
2023/05/20 03:18:11;;;;;;;10.52;4.45;;;9.80;99.90;;;;;;5094400;28;20051;-70
2023/05/20 03:20:37;;;;;;;12.52;4.28;;;9.70;99.90;;;;;;5101508;28;20502;-74
2023/05/20 03:23:03;;;;;;;9.18;4.85;;;9.70;99.90;;;;;;5082722;28;20045;-69
2023/05/20 03:25:29;;;;;;;9.32;4.28;;;9.80;99.90;;;;;;5098547;28;20108;-68
2023/05/20 03:27:57;;;;;;;12.40;4.50;;;9.60;99.90;;;;;;5099439;28;20040;-68
2023/05/20 03:30:23;;;;;;;10.30;4.53;;;9.60;99.90;;;;;;5095799;28;20509;-67
2023/05/20 03:32:48;;;;;;;10.93;4.53;;;9.60;99.90;;;;;;5086096;28;20036;-70
2023/05/20 03:35:14;;;;;;;8.52;4.07;;;9.60;99.90;;;;;;5092479;28;20566;-68
2023/05/20 03:37:40;;;;;;;13.18;4.38;;;9.60;99.90;;;;;;5089393;28;20039;-70
2023/05/20 03:40:09;;;;;;;8.98;4.18;;;9.90;99.90;;;;;;5099865;28;20044;-69
2023/05/20 03:42:35;;;;;;;9.80;4.22;;;9.60;99.90;;;;;;5098288;28;20120;-69
2023/05/20 03:45:01;;;;;;;11.85;4.13;;;9.60;99.90;;;;;;5098249;28;20044;-68
2023/05/20 03:47:27;;;;;;;11.18;4.30;;;9.60;99.90;;;;;;5087882;28;20372;-72
2023/05/20 03:49:53;;;;;;;9.43;4.13;;;9.60;99.90;;;;;;5079605;28;20055;-68
2023/05/20 03:52:19;;;;;;;10.30;4.40;;;9.60;99.90;;;;;;5098641;28;20068;-68
2023/05/20 03:54:44;;;;;;;8.00;3.67;;;9.60;99.90;;;;;;5101699;28;20051;-70
2023/05/20 03:57:10;;;;;;;9.05;3.83;;;9.60;99.90;;;;;;5099476;28;20512;-69
2023/05/20 03:59:36;;;;;;;9.35;3.97;;;9.70;99.90;;;;;;5096788;28;20043;-67
2023/05/20 04:02:02;;;;;;;8.50;3.90;;;9.60;99.90;;;;;;5077688;28;20396;-66
2023/05/20 04:04:29;;;;;;;12.10;4.00;;;9.60;99.90;;;;;;5079440;28;20066;-68
2023/05/20 04:06:55;;;;;;;7.45;3.22;;;9.50;99.90;;;;;;5094331;28;20036;-67
2023/05/20 04:09:21;;;;;;;8.82;4.15;;;9.50;99.90;;;;;;5097681;28;20051;-69
2023/05/20 04:11:47;;;;;;;9.07;3.80;;;9.50;99.90;;;;;;5089179;28;20122;-68
2023/05/20 04:14:14;;;;;;;8.98;3.60;;;9.60;99.90;;;;;;5090531;28;20120;-69
2023/05/20 04:16:40;;;;;;;11.20;3.53;;;9.60;99.90;;;;;;5094314;28;20055;-69
2023/05/20 04:19:06;;;;;;;8.40;3.90;;;9.60;99.90;;;;;;5091570;28;20051;-70
2023/05/20 04:21:31;;;;;;;7.60;3.30;;;9.60;99.90;;;;;;5093186;28;20118;-69
2023/05/20 04:23:57;;;;;;;10.93;3.53;;;9.60;99.90;;;;;;5099214;28;20047;-71
2023/05/20 04:26:23;;;;;;;7.47;2.97;;;9.80;99.90;;;;;;5100896;28;20043;-68
2023/05/20 04:28:48;;;;;;;9.32;3.35;;;9.70;99.90;;;;;;5095638;28;20048;-69
2023/05/20 04:31:14;;;;;;;10.77;3.35;;;9.70;99.90;;;;;;5097846;28;20056;-68
2023/05/20 04:33:40;;;;;;;8.25;3.10;;;9.70;99.90;;;;;;5097959;28;20027;-69
2023/05/20 04:36:09;;;;;;;8.02;3.28;;;9.80;99.90;;;;;;5099095;28;20483;-69
2023/05/20 04:38:34;;;;;;;8.90;2.47;;;9.80;99.90;;;;;;5100711;28;20551;-70
2023/05/20 04:41:01;;;;;;;10.90;2.95;;;9.90;99.90;;;;;;5076744;28;20036;-69
2023/05/20 04:43:30;;;;;;;6.75;2.75;;;9.90;99.90;;;;;;5097422;28;20048;-69
2023/05/20 04:45:56;;;;;;;7.10;2.65;;;9.90;99.90;;;;;;5093927;28;20063;-68
2023/05/20 04:48:22;;;;;;;8.55;3.17;;;10.00;99.90;;;;;;5098927;28;20138;-68
2023/05/20 04:50:48;;;;;;;6.25;3.00;;;10.00;99.90;;;;;;5090404;28;20052;-68
2023/05/20 04:53:15;;;;;;;7.05;2.40;;;10.60;99.90;;;;;;5099613;28;20394;-69
2023/05/20 04:55:42;;;;;;;6.32;3.10;;;10.10;99.90;;;;;;5087777;28;20042;-67
2023/05/20 04:58:13;;;;;;;8.00;2.70;;;10.20;99.90;;;;;;5104278;28;20555;-68
2023/05/20 05:00:42;;;;;;;6.72;2.40;;;10.30;99.90;;;;;;5101863;28;20047;-68
2023/05/20 05:03:08;;;;;;;7.45;2.70;;;10.60;99.90;;;;;;5101494;28;20044;-67
2023/05/20 05:05:38;;;;;;;5.43;2.42;;;10.40;99.90;;;;;;5095115;28;20403;-70
2023/05/20 05:08:04;;;;;;;4.35;2.00;;;10.50;99.90;;;;;;5090286;28;20047;-67
2023/05/20 05:10:30;;;;;;;6.30;2.08;;;10.60;99.90;;;;;;5102185;28;20101;-69
2023/05/20 05:12:56;;;;;;;3.58;1.90;;;10.70;99.90;;;;;;5087103;28;20039;-68
2023/05/20 05:15:22;;;;;;;7.00;2.13;;;11.00;99.90;;;;;;5096170;28;20040;-68
2023/05/20 05:17:48;;;;;;;5.57;1.95;;;10.80;99.90;;;;;;5100755;28;20063;-68
2023/05/20 05:20:14;;;;;;;4.95;2.15;;;10.90;99.90;;;;;;5082315;28;20048;-68
2023/05/20 05:22:40;;;;;;;8.13;2.03;;;10.90;99.90;;;;;;5100914;28;20051;-68
2023/05/20 05:25:12;;;;;;;6.95;1.92;;;11.20;99.90;;;;;;5103293;28;20410;-69
2023/05/20 05:27:38;;;;;;;6.05;2.00;;;11.00;99.90;;;;;;5073039;28;20036;-68
2023/05/20 05:30:06;;;;;;;8.40;2.00;;;11.20;99.90;;;;;;5099213;28;20039;-68
2023/05/20 05:32:32;;;;;;;4.32;1.70;;;11.10;99.90;;;;;;5100987;28;20455;-69
2023/05/20 05:34:58;;;;;;;7.55;2.15;;;11.20;99.90;;;;;;5088950;28;20459;-69
2023/05/20 05:37:23;;;;;;;3.83;1.52;;;11.20;99.90;;;;;;5103478;28;20072;-68
2023/05/20 05:39:49;;;;;;;3.03;1.58;;;11.30;99.90;;;;;;5103551;28;20044;-69
2023/05/20 05:42:15;;;;;;;6.95;2.65;;;11.50;99.90;;;;;;5074865;28;20045;-69
2023/05/20 05:44:40;;;;;;;6.25;1.88;;;11.50;99.90;;;;;;5097557;28;20040;-71
2023/05/20 05:47:06;;;;;;;6.63;1.80;;;11.40;99.90;;;;;;5100103;28;20146;-68
2023/05/20 05:49:33;;;;;;;3.17;1.48;;;11.50;99.90;;;;;;5099998;28;20056;-67
2023/05/20 05:51:58;;;;;;;6.22;1.27;;;11.60;99.90;;;;;;5093061;28;20486;-69
2023/05/20 05:54:24;;;;;;;7.28;1.50;;;11.60;99.90;;;;;;5101954;28;20058;-68
2023/05/20 05:56:53;;;;;;;5.38;1.70;;;11.70;99.90;;;;;;5100418;28;20032;-69
2023/05/20 05:59:19;;;;;;;6.03;1.75;;;11.80;99.90;;;;;;5098701;28;20077;-70
2023/05/20 06:01:45;;;;;;;3.67;1.42;;;12.00;99.90;;;;;;5099517;28;20056;-69
2023/05/20 06:04:10;;;;;;;6.47;1.30;;;12.10;99.90;;;;;;5090990;28;20567;-69
2023/05/20 06:06:36;;;;;;;3.97;1.45;;;12.30;99.90;;;;;;5099218;28;20043;-68
2023/05/20 06:09:02;;;;;;;6.80;1.35;;;12.40;99.90;;;;;;5092919;28;20040;-68
2023/05/20 06:11:28;;;;;;;4.53;1.35;;;12.50;99.90;;;;;;5099950;28;20044;-69
2023/05/20 06:13:54;;;;;;;4.85;1.50;;;12.60;99.90;;;;;;5101891;28;20051;-69
2023/05/20 06:16:20;;;;;;;4.30;1.20;;;12.90;99.90;;;;;;5085870;28;20043;-70
2023/05/20 06:18:48;;;;;;;5.00;1.27;;;12.80;99.90;;;;;;5082479;28;20074;-68
2023/05/20 06:21:14;;;;;;;4.43;1.50;;;13.00;99.90;;;;;;5094753;28;20047;-67
2023/05/20 06:23:40;;;;;;;6.07;1.40;;;13.00;99.90;;;;;;5099882;28;20039;-68
2023/05/20 06:26:05;;;;;;;5.22;1.40;;;13.10;99.90;;;;;;5102192;28;20036;-68
2023/05/20 06:28:31;;;;;;;4.53;1.42;;;13.20;99.90;;;;;;5097977;28;20116;-68
2023/05/20 06:30:57;;;;;;;6.13;1.50;;;13.30;99.90;;;;;;5081575;28;20040;-71
2023/05/20 06:33:26;;;;;;;5.07;1.20;;;13.40;99.90;;;;;;5102676;28;20047;-70
2023/05/20 06:35:52;;;;;;;4.63;1.40;;;13.50;99.90;;;;;;5102678;28;20096;-69
2023/05/20 06:38:18;;;;;;;2.80;1.00;;;13.60;99.90;;;;;;5099425;28;20101;-69
2023/05/20 06:40:44;;;;;;;4.80;1.20;;;13.70;99.90;;;;;;5080209;28;20040;-69
2023/05/20 06:43:09;;;;;;;2.78;1.27;;;13.80;99.90;;;;;;5100128;28;20044;-71
2023/05/20 06:45:35;;;;;;;3.17;1.20;;;13.90;99.90;;;;;;5092701;28;20048;-69
2023/05/20 06:48:00;;;;;;;3.92;1.10;;;14.20;99.90;;;;;;5106459;28;20448;-68
2023/05/20 06:50:27;;;;;;;4.53;1.30;;;14.30;99.90;;;;;;5087775;28;20060;-70
2023/05/20 06:52:53;;;;;;;2.80;1.27;;;14.50;99.90;;;;;;5096036;28;20792;-69
2023/05/20 06:55:19;;;;;;;2.50;1.15;;;14.60;99.90;;;;;;5102185;28;20072;-70
2023/05/20 06:57:44;;;;;;;6.72;1.23;;;14.90;99.90;;;;;;5093270;28;20082;-69
2023/05/20 07:00:12;;;;;;;3.40;1.30;;;15.10;99.90;;;;;;5096783;28;20126;-66
2023/05/20 07:02:38;;;;;;;6.03;1.30;;;15.30;99.90;;;;;;5097967;28;20051;-70
2023/05/20 07:05:04;;;;;;;2.95;1.20;;;15.50;99.90;;;;;;5099029;28;20135;-69
2023/05/20 07:07:30;;;;;;;3.08;1.27;;;15.80;99.90;;;;;;5097182;28;20047;-68
2023/05/20 07:09:56;;;;;;;3.78;1.23;;;15.90;99.90;;;;;;5102159;28;20043;-69
2023/05/20 07:12:22;;;;;;;5.78;1.02;;;15.90;99.90;;;;;;5083121;28;20052;-71
2023/05/20 07:14:48;;;;;;;4.32;1.15;;;16.00;99.90;;;;;;5088715;28;20443;-70
2023/05/20 07:17:13;;;;;;;5.38;1.40;;;16.20;99.90;;;;;;5096693;28;20604;-69
2023/05/20 07:19:39;;;;;;;5.95;1.15;;;16.20;99.90;;;;;;5098667;28;20039;-68
2023/05/20 07:22:05;;;;;;;5.50;1.48;;;16.30;99.90;;;;;;5080533;28;20044;-69
2023/05/20 07:24:30;;;;;;;4.20;1.17;;;16.40;99.90;;;;;;5062867;28;20161;-70
2023/05/20 07:26:56;;;;;;;1.88;0.90;;;16.50;99.90;;;;;;5099837;28;20032;-69
2023/05/20 07:29:22;;;;;;;5.15;1.27;;;16.40;99.90;;;;;;5101787;28;20046;-69
2023/05/20 07:31:47;;;;;;;3.28;1.30;;;16.50;99.90;;;;;;5080749;28;20036;-69
2023/05/20 07:34:13;;;;;;;3.35;1.10;;;16.40;99.90;;;;;;5101188;28;20415;-68
2023/05/20 07:36:39;;;;;;;2.13;0.90;;;16.60;99.90;;;;;;5098540;28;20036;-70
2023/05/20 07:39:04;;;;;;;5.03;0.93;;;16.80;99.90;;;;;;5090035;28;20048;-67
2023/05/20 07:41:30;;;;;;;6.70;1.20;;;16.90;99.90;;;;;;5094129;28;20043;-70
2023/05/20 07:43:56;;;;;;;3.40;1.00;;;17.10;99.90;;;;;;5099970;28;20038;-69
2023/05/20 07:46:21;;;;;;;4.25;1.10;;;17.20;99.90;;;;;;5097975;28;20040;-71
2023/05/20 07:48:47;;;;;;;3.67;1.30;;;17.20;99.90;;;;;;5098586;28;20052;-69
2023/05/20 07:51:13;;;;;;;5.18;1.27;;;17.30;99.90;;;;;;5098480;28;20498;-70
2023/05/20 07:53:38;;;;;;;5.60;1.17;;;17.40;99.90;;;;;;5101418;28;20048;-71
2023/05/20 07:56:04;;;;;;;1.75;0.98;;;17.60;99.90;;;;;;5092040;28;20055;-69
2023/05/20 07:58:31;;;;;;;2.78;0.90;;;17.70;99.90;;;;;;5091966;28;20082;-70
2023/05/20 08:00:56;;;;;;;3.28;1.00;;;17.70;99.90;;;;;;5079983;28;20040;-70
2023/05/20 08:03:22;;;;;;;3.65;1.17;;;18.00;99.90;;;;;;5098072;28;20475;-69
2023/05/20 08:05:48;;;;;;;3.53;1.10;;;18.00;99.90;;;;;;5088920;28;20055;-70
2023/05/20 08:08:15;;;;;;;4.53;1.05;;;18.10;99.90;;;;;;5101236;28;20051;-70
2023/05/20 08:10:41;;;;;;;6.10;1.17;;;18.30;99.90;;;;;;5093041;28;20132;-70
2023/05/20 08:13:06;;;;;;;6.07;1.10;;;18.30;99.90;;;;;;5098191;28;20044;-71
2023/05/20 08:15:32;;;;;;;2.67;1.10;;;18.20;99.90;;;;;;5098220;28;20097;-71
2023/05/20 08:17:57;;;;;;;4.43;1.20;;;18.30;99.90;;;;;;5082634;28;20842;-70
2023/05/20 08:20:25;;;;;;;2.67;1.27;;;18.40;99.90;;;;;;5101290;28;20082;-69
2023/05/20 08:22:51;;;;;;;6.35;1.10;;;18.60;99.90;;;;;;5078664;28;20048;-70
2023/05/20 08:25:17;;;;;;;5.03;1.13;;;18.70;99.90;;;;;;5094313;28;20120;-70
2023/05/20 08:27:43;;;;;;;11.80;1.42;;;18.80;99.90;;;;;;5103082;28;20035;-68
2023/05/20 08:30:09;;;;;;;4.57;1.30;;;19.00;99.90;;;;;;5102034;28;20127;-71
2023/05/20 08:32:36;;;;;;;6.95;1.35;;;19.20;99.90;;;;;;5108690;28;20455;-70
2023/05/20 08:35:02;;;;;;;3.63;1.27;;;19.40;99.90;;;;;;5103792;28;20406;-71
2023/05/20 08:37:28;;;;;;;3.38;1.15;;;19.30;99.90;;;;;;5101923;28;20119;-71
2023/05/20 08:39:55;;;;;;;7.03;1.58;;;19.40;99.90;;;;;;5082338;28;20046;-67
2023/05/20 08:42:25;;;;;;;5.28;1.13;;;19.40;99.90;;;;;;5101514;28;20044;-69
2023/05/20 08:44:52;;;;;;;7.70;1.25;;;19.40;99.90;;;;;;5101451;28;20050;-70
2023/05/20 08:47:20;;;;;;;2.67;1.23;;;19.60;99.90;;;;;;5103504;28;20048;-70
2023/05/20 08:49:47;;;;;;;5.20;1.20;;;19.60;99.90;;;;;;5104531;28;20062;-70
2023/05/20 08:52:15;;;;;;;2.72;1.08;;;19.80;99.90;;;;;;5100282;28;20411;-69
2023/05/20 08:54:46;;;;;;;5.13;1.73;;;19.90;99.90;;;;;;5104300;28;20103;-70
2023/05/20 08:57:15;;;;;;;5.05;1.27;;;20.00;99.90;;;;;;5082874;28;20048;-70
2023/05/20 08:59:43;;;;;;;5.25;1.48;;;20.10;99.90;;;;;;5084060;28;20451;-70
2023/05/20 09:02:10;;;;;;;4.28;1.48;;;20.30;99.90;;;;;;5101459;28;20052;-70
2023/05/20 09:04:36;;;;;;;3.28;1.50;;;20.40;99.90;;;;;;5103174;28;20044;-71
2023/05/20 09:07:02;;;;;;;4.60;1.30;;;20.40;99.90;;;;;;5104687;28;20130;-70
2023/05/20 09:09:29;;;;;;;6.53;1.35;;;20.20;99.90;;;;;;5104225;28;20039;-69
2023/05/20 09:11:54;;;;;;;4.55;1.30;;;20.40;99.90;;;;;;5100918;28;20817;-70
2023/05/20 09:14:20;;;;;;;5.13;1.23;;;20.50;99.90;;;;;;5082987;28;20130;-69
2023/05/20 09:16:47;;;;;;;3.13;1.45;;;20.70;99.90;;;;;;5102246;28;20040;-70
2023/05/20 09:19:13;;;;;;;4.03;1.48;;;20.70;99.90;;;;;;5104215;28;20044;-69
2023/05/20 09:21:40;;;;;;;3.88;1.35;;;20.60;99.90;;;;;;5082694;28;20079;-70
2023/05/20 09:24:06;;;;;;;6.35;1.50;;;20.70;99.60;;;;;;5087181;28;20043;-69
2023/05/20 09:26:32;;;;;;;3.70;1.17;;;20.80;99.70;;;;;;5103923;28;20096;-71
2023/05/20 09:28:58;;;;;;;4.90;1.60;;;20.80;99.70;;;;;;5094973;28;20048;-70
2023/05/20 09:31:32;;;;;;;2.50;1.05;;;21.00;99.60;;;;;;5082082;28;20079;-69
2023/05/20 09:33:59;;;;;;;4.68;1.40;;;21.10;99.30;;;;;;5101749;28;20044;-70
2023/05/20 09:36:27;;;;;;;4.90;1.48;;;21.30;99.50;;;;;;5103901;28;20095;-70
2023/05/20 09:38:58;;;;;;;6.32;1.55;;;21.30;99.00;;;;;;5103161;28;20123;-70
2023/05/20 09:41:30;;;;;;;3.47;1.38;;;21.40;98.70;;;;;;5087320;28;20048;-70
2023/05/20 09:43:57;;;;;;;3.35;1.40;;;21.30;98.10;;;;;;5103646;28;20046;-70
2023/05/20 09:46:24;;;;;;;5.90;1.40;;;21.30;98.10;;;;;;5083797;28;20144;-70
2023/05/20 09:48:50;;;;;;;5.18;1.40;;;21.20;98.50;;;;;;5090869;28;20398;-71
2023/05/20 09:51:16;;;;;;;6.43;1.35;;;21.40;98.70;;;;;;5082544;28;20060;-70
2023/05/20 09:53:42;;;;;;;3.13;1.33;;;21.50;98.30;;;;;;5103347;28;20040;-69
2023/05/20 09:56:08;;;;;;;3.30;1.40;;;21.50;98.00;;;;;;5103496;28;20050;-69
2023/05/20 09:58:35;;;;;;;9.43;1.60;;;21.60;98.40;;;;;;5084385;28;20337;-77
2023/05/20 10:01:01;;;;;;;6.25;1.73;;;21.60;97.90;;;;;;5103534;28;20051;-72
2023/05/20 10:03:27;;;;;;;12.02;1.70;;;21.80;98.60;;;;;;5094313;28;20071;-70
2023/05/20 10:06:06;;;;;;;3.78;1.50;;;21.90;98.00;;;;;;5081211;28;20435;-70
2023/05/20 10:08:46;;;;;;;3.75;1.48;;;21.90;97.80;;;;;;5100668;28;20057;-69
2023/05/20 10:11:39;;;;;;;6.90;1.65;;;22.00;97.40;;;;;;5103128;28;20109;-70
2023/05/20 10:14:29;;;;;;;8.93;1.38;;;22.00;97.20;;;;;;5075146;28;20056;-70
2023/05/20 10:17:10;;;;;;;7.97;1.80;;;22.10;97.10;;;;;;5099328;28;20048;-72
2023/05/20 10:19:35;;;;;;;3.53;1.40;;;21.80;96.00;;;;;;5081308;28;20127;-73
2023/05/20 10:22:03;;;;;;;5.20;1.42;;;21.90;96.40;;;;;;5102853;28;20219;-71
2023/05/20 10:24:30;;;;;;;3.67;1.42;;;21.60;96.20;;;;;;5102958;28;20060;-71
2023/05/20 10:26:57;;;;;;;6.75;1.60;;;21.40;95.70;;;;;;5101626;28;20035;-72
2023/05/20 10:29:23;;;;;;;6.10;1.38;;;21.60;96.60;;;;;;5099857;28;20052;-69
2023/05/20 10:31:50;;;;;;;3.67;1.48;;;21.80;95.90;;;;;;5081384;28;20048;-70
2023/05/20 10:34:20;;;;;;;5.25;1.45;;;21.70;95.70;;;;;;5085747;28;20533;-73
2023/05/20 10:36:57;;;;;;;7.20;1.50;;;21.80;95.90;;;;;;5093557;28;20051;-72
2023/05/20 10:39:28;;;;;;;6.35;1.67;;;22.00;95.70;;;;;;5086640;28;20494;-71
2023/05/20 10:42:08;;;;;;;6.05;1.65;;;22.10;96.40;;;;;;5081211;28;20076;-71
2023/05/20 10:44:46;;;;;;;3.88;1.50;;;21.80;95.90;;;;;;5088149;28;20135;-70
2023/05/20 10:47:13;;;;;;;4.93;1.58;;;21.80;95.60;;;;;;5099397;28;20094;-70
2023/05/20 10:49:44;;;;;;;3.15;1.50;;;21.60;95.90;;;;;;5098073;28;20095;-78
2023/05/20 10:52:10;;;;;;;4.30;1.30;;;21.90;96.40;;;;;;5099462;28;20096;-72
2023/05/20 10:54:42;;;;;;;5.78;1.33;;;22.10;96.10;;;;;;5080707;28;20059;-75
2023/05/20 10:57:08;;;;;;;5.18;1.38;;;22.40;96.20;;;;;;5099321;28;20090;-72
2023/05/20 10:59:35;;;;;;;3.92;1.30;;;22.50;96.00;;;;;;5100252;28;20512;-68
2023/05/20 11:02:02;;;;;;;5.47;1.60;;;22.50;95.50;;;;;;5080739;28;20403;-70
2023/05/20 11:04:30;;;;;;;5.63;1.73;;;22.50;95.60;;;;;;5098443;28;20049;-73
2023/05/20 11:06:57;;;;;;;8.80;1.38;;;22.40;95.00;;;;;;5098868;28;20143;-75
2023/05/20 11:09:23;;;;;;;5.95;1.65;;;22.30;95.40;;;;;;5099405;28;20054;-69
2023/05/20 11:11:52;;;;;;;1.70;1.00;;;22.10;94.10;;;;;;5101909;28;20044;-72
2023/05/20 11:14:18;;;;;;;6.22;1.52;;;22.10;95.30;;;;;;5102358;28;20039;-72
2023/05/20 11:16:45;;;;;;;4.95;1.48;;;22.00;95.20;;;;;;5064801;28;20144;-74
2023/05/20 11:19:15;;;;;;;3.67;1.20;;;22.00;94.00;;;;;;5101502;28;20467;-70
2023/05/20 11:21:47;;;;;;;4.03;1.67;;;22.30;95.10;;;;;;5092320;28;20105;-71
2023/05/20 11:24:14;;;;;;;2.70;1.10;;;22.30;95.60;;;;;;5098608;28;20503;-71
2023/05/20 11:26:40;;;;;;;5.50;1.85;;;22.50;95.90;;;;;;5098802;28;20040;-77
2023/05/20 11:29:06;;;;;;;6.35;1.98;;;22.40;96.00;;;;;;5101059;28;20483;-70
2023/05/20 11:31:32;;;;;;;7.28;2.17;;;22.10;96.10;;;;;;5093481;28;20368;-68
2023/05/20 11:34:01;;;;;;;5.95;1.50;;;22.10;96.30;;;;;;5099131;28;20048;-74
2023/05/20 11:36:27;;;;;;;5.95;2.00;;;22.20;96.60;;;;;;5101328;28;20070;-69
2023/05/20 11:38:54;;;;;;;5.88;1.70;;;22.50;97.10;;;;;;5101837;28;20118;-73
2023/05/20 11:41:24;;;;;;;5.35;1.73;;;22.60;97.00;;;;;;5098604;28;20453;-71
2023/05/20 11:43:59;;;;;;;3.78;1.60;;;22.20;96.40;;;;;;5098260;28;20047;-73
2023/05/20 11:46:26;;;;;;;5.25;1.83;;;22.10;97.10;;;;;;5101139;28;20048;-70
2023/05/20 11:48:55;;;;;;;7.28;1.77;;;22.40;97.20;;;;;;5101734;28;20046;-69
2023/05/20 11:51:28;;;;;;;4.80;1.70;;;22.40;97.20;;;;;;5100160;28;20445;-71
2023/05/20 11:54:04;;;;;;;7.00;1.88;;;22.30;96.80;;;;;;5098768;28;20032;-72
2023/05/20 11:56:32;;;;;;;5.47;1.65;;;22.10;96.10;;;;;;5082076;28;20127;-71
2023/05/20 11:59:01;;;;;;;3.72;1.48;;;21.90;96.60;;;;;;5091351;28;20047;-71
2023/05/20 12:01:30;;;;;;;5.18;1.40;;;22.10;97.30;;;;;;5100634;28;20048;-71
2023/05/20 12:03:55;;;;;;;10.43;2.00;;;22.00;97.00;;;;;;5105516;28;20047;-71
2023/05/20 12:06:21;;;;;;;7.00;2.17;;;21.80;97.10;;;;;;5083745;28;20052;-70
2023/05/20 12:08:47;;;;;;;7.72;1.70;;;21.80;97.10;;;;;;5105153;28;20394;-70
2023/05/20 12:11:12;;;;;;;4.07;1.70;;;21.90;97.10;;;;;;5105524;28;20454;-70
2023/05/20 12:13:39;;;;;;;4.05;1.65;;;22.10;97.00;;;;;;5104432;28;20477;-70
2023/05/20 12:16:05;;;;;;;4.53;1.83;;;22.20;96.90;;;;;;5102198;28;20048;-70
2023/05/20 12:18:31;;;;;;;8.48;2.17;;;22.10;96.90;;;;;;5102153;28;20733;-68
2023/05/20 12:20:58;;;;;;;7.70;2.08;;;22.10;97.00;;;;;;5104325;28;20051;-70
2023/05/20 12:23:24;;;;;;;4.43;1.83;;;22.00;97.00;;;;;;5105220;28;20402;-69
2023/05/20 12:25:50;;;;;;;6.30;1.80;;;21.90;97.40;;;;;;5104076;28;20118;-70
2023/05/20 12:28:18;;;;;;;5.93;1.88;;;22.00;97.30;;;;;;5083125;28;20047;-70
2023/05/20 12:30:44;;;;;;;5.60;2.10;;;22.20;97.70;;;;;;5101974;28;20043;-71
2023/05/20 12:33:09;;;;;;;8.50;1.95;;;22.30;97.50;;;;;;5104332;28;20044;-70
2023/05/20 12:35:40;;;;;;;6.20;1.70;;;22.00;97.20;;;;;;5098542;28;20036;-69
2023/05/20 12:38:07;;;;;;;5.97;2.08;;;21.80;96.80;;;;;;5083064;28;20124;-69
2023/05/20 12:40:33;;;;;;;5.53;2.17;;;21.50;97.00;;;;;;5101837;28;20040;-70
2023/05/20 12:43:00;;;;;;;8.05;1.90;;;21.50;97.40;;;;;;5100230;28;20040;-70